createdAt,value
2023-05-12T00:00:49.481Z,5.40
2023-05-12T00:03:36.546Z,4.40
2023-05-12T00:06:23.465Z,4.30
2023-05-12T00:09:10.226Z,4.10
2023-05-12T00:11:56.761Z,4.10
2023-05-12T00:14:43.159Z,4.00
2023-05-12T00:17:29.527Z,4.80
2023-05-12T00:20:16.024Z,4.20
2023-05-12T00:23:02.605Z,3.70
2023-05-12T00:25:49.396Z,4.30
2023-05-12T00:28:36.021Z,4.40
2023-05-12T00:31:22.396Z,4.50
2023-05-12T00:34:08.832Z,4.40
2023-05-12T00:36:55.470Z,4.70
2023-05-12T00:39:42.316Z,3.90
2023-05-12T00:42:28.825Z,4.60
2023-05-12T00:45:15.487Z,4.10
2023-05-12T00:48:03.723Z,4.30
2023-05-12T00:50:50.534Z,4.00
2023-05-12T00:53:48.559Z,4.30
2023-05-12T00:56:39.453Z,4.00
2023-05-12T00:59:29.721Z,3.60
2023-05-12T01:02:16.446Z,4.40
2023-05-12T01:05:03.817Z,4.10
2023-05-12T01:07:50.591Z,5.00
2023-05-12T01:10:44.074Z,4.60
2023-05-12T01:13:30.557Z,3.60
2023-05-12T01:16:21.041Z,4.30
2023-05-12T01:21:58.987Z,3.80
2023-05-12T01:24:50.378Z,4.20
2023-05-12T01:27:39.794Z,4.50
2023-05-12T01:30:28.317Z,4.80
2023-05-12T01:33:14.897Z,4.40
2023-05-12T01:36:01.845Z,4.00
2023-05-12T01:38:48.498Z,4.20
2023-05-12T01:41:34.796Z,5.20
2023-05-12T01:44:22.069Z,4.50
2023-05-12T01:47:11.212Z,4.40
2023-05-12T01:49:58.908Z,4.70
2023-05-12T01:52:46.291Z,4.20
2023-05-12T01:55:34.564Z,4.60
2023-05-12T01:58:21.817Z,3.80
2023-05-12T02:01:08.635Z,4.90
2023-05-12T02:03:56.142Z,4.40
2023-05-12T02:06:42.987Z,4.30
2023-05-12T02:09:29.500Z,4.80
2023-05-12T02:12:19.201Z,4.80
2023-05-12T02:15:06.456Z,4.50
2023-05-12T02:17:54.575Z,4.20
2023-05-12T02:20:41.756Z,4.60
2023-05-12T02:23:28.745Z,5.20
2023-05-12T02:26:15.063Z,3.90
2023-05-12T02:29:01.799Z,4.00
2023-05-12T02:31:48.205Z,3.90
2023-05-12T02:34:35.678Z,4.70
2023-05-12T02:37:22.215Z,4.40
2023-05-12T02:40:09.621Z,4.80
2023-05-12T02:42:56.050Z,4.70
2023-05-12T02:45:43.011Z,4.40
2023-05-12T02:48:29.472Z,5.30
2023-05-12T02:51:15.833Z,4.90
2023-05-12T02:54:02.498Z,5.00
2023-05-12T02:56:48.970Z,5.40
2023-05-12T02:59:35.467Z,5.00
2023-05-12T03:02:21.853Z,5.10
2023-05-12T03:05:09.260Z,4.70
2023-05-12T03:07:56.116Z,4.70
2023-05-12T03:10:44.098Z,5.10
2023-05-12T03:13:30.649Z,4.90
2023-05-12T03:16:19.748Z,5.90
2023-05-12T03:19:06.760Z,5.10
2023-05-12T03:21:53.969Z,4.60
2023-05-12T03:24:40.442Z,4.50
2023-05-12T03:27:27.344Z,5.20
2023-05-12T03:30:14.735Z,4.80
2023-05-12T03:33:01.788Z,4.80
2023-05-12T03:35:48.262Z,5.50
2023-05-12T03:38:34.836Z,5.00
2023-05-12T03:41:22.192Z,5.00
2023-05-12T03:44:10.108Z,5.80
2023-05-12T03:46:56.812Z,4.70
2023-05-12T03:49:43.348Z,5.20
2023-05-12T03:52:29.699Z,4.50
2023-05-12T03:55:16.208Z,4.70
2023-05-12T03:58:02.791Z,4.80
2023-05-12T04:00:50.267Z,5.40
2023-05-12T04:03:36.732Z,5.10
2023-05-12T04:06:23.736Z,5.10
2023-05-12T04:09:10.313Z,4.90
2023-05-12T04:11:56.956Z,5.10
2023-05-12T04:14:43.938Z,5.60
2023-05-12T04:17:30.810Z,5.60
2023-05-12T04:20:17.713Z,5.20
2023-05-12T04:23:04.206Z,4.80
2023-05-12T04:25:51.106Z,5.20
2023-05-12T04:28:37.781Z,5.30
2023-05-12T04:31:24.655Z,5.10
2023-05-12T04:34:12.121Z,4.50
2023-05-12T04:36:58.922Z,4.00
2023-05-12T04:39:45.557Z,4.90
2023-05-12T04:42:32.095Z,4.70
2023-05-12T04:45:19.443Z,5.10
2023-05-12T04:48:06.700Z,4.60
2023-05-12T04:50:53.778Z,4.90
2023-05-12T04:53:40.042Z,4.90
2023-05-12T04:56:26.358Z,5.00
2023-05-12T04:59:15.785Z,4.70
2023-05-12T05:02:02.952Z,4.50
2023-05-12T05:04:49.565Z,5.00
2023-05-12T05:07:36.055Z,4.30
2023-05-12T05:10:22.369Z,4.20
2023-05-12T05:13:08.855Z,4.60
2023-05-12T05:15:56.142Z,4.20
2023-05-12T05:18:47.616Z,5.50
2023-05-12T05:21:34.687Z,4.10
2023-05-12T05:24:20.910Z,4.50
2023-05-12T05:27:07.429Z,3.80
2023-05-12T05:29:54.387Z,4.80
2023-05-12T05:32:41.092Z,5.10
2023-05-12T05:35:27.655Z,4.30
2023-05-12T05:38:14.712Z,4.40
2023-05-12T05:41:01.199Z,5.00
2023-05-12T05:43:47.774Z,4.40
2023-05-12T05:46:34.012Z,4.70
2023-05-12T05:49:20.460Z,4.90
2023-05-12T05:52:07.809Z,3.80
2023-05-12T05:54:54.311Z,4.40
2023-05-12T05:57:42.692Z,4.40
2023-05-12T06:00:29.502Z,5.00
2023-05-12T06:03:16.173Z,4.10
2023-05-12T06:06:03.441Z,4.70
2023-05-12T06:08:50.194Z,4.10
2023-05-12T06:11:36.514Z,4.70
2023-05-12T06:14:22.772Z,4.70
2023-05-12T06:17:09.211Z,4.10
2023-05-12T06:19:55.729Z,4.50
2023-05-12T06:22:42.384Z,4.50
2023-05-12T06:25:29.722Z,4.50
2023-05-12T06:28:15.995Z,4.40
2023-05-12T06:31:02.258Z,4.20
2023-05-12T06:33:49.731Z,4.50
2023-05-12T06:36:36.021Z,3.70
2023-05-12T06:39:22.447Z,4.40
2023-05-12T06:42:09.169Z,4.70
2023-05-12T06:45:01.719Z,4.50
2023-05-12T06:47:48.157Z,3.80
2023-05-12T06:50:34.873Z,4.70
2023-05-12T06:53:22.828Z,3.60
2023-05-12T06:56:16.909Z,3.70
2023-05-12T06:59:04.229Z,3.80
2023-05-12T07:01:50.898Z,3.80
2023-05-12T07:04:38.041Z,4.00
2023-05-12T07:07:24.740Z,3.80
2023-05-12T07:10:11.264Z,3.50
2023-05-12T07:12:57.690Z,3.40
2023-05-12T07:15:44.258Z,4.00
2023-05-12T07:18:31.989Z,3.80
2023-05-12T07:21:18.757Z,3.70
2023-05-12T07:24:06.407Z,3.60
2023-05-12T07:26:52.851Z,3.40
2023-05-12T07:29:39.269Z,3.50
2023-05-12T07:32:25.751Z,3.30
2023-05-12T07:35:12.559Z,3.50
2023-05-12T07:37:58.649Z,3.10
2023-05-12T07:40:45.414Z,3.40
2023-05-12T07:43:31.936Z,3.40
2023-05-12T07:46:18.347Z,3.70
2023-05-12T07:49:05.010Z,3.20
2023-05-12T07:51:51.857Z,3.20
2023-05-12T07:54:38.284Z,3.90
2023-05-12T07:57:24.777Z,3.20
2023-05-12T08:00:11.651Z,3.70
2023-05-12T08:05:48.075Z,3.60
2023-05-12T08:08:34.967Z,3.00
2023-05-12T08:11:22.012Z,3.20
2023-05-12T08:14:08.476Z,3.00
2023-05-12T08:16:55.081Z,3.00
2023-05-12T08:19:41.957Z,3.30
2023-05-12T08:22:28.536Z,2.70
2023-05-12T08:25:15.396Z,3.20
2023-05-12T08:28:02.099Z,2.60
2023-05-12T08:30:48.888Z,3.00
2023-05-12T08:33:36.341Z,3.10
2023-05-12T08:36:22.970Z,2.80
2023-05-12T08:39:12.739Z,2.60
2023-05-12T08:42:22.194Z,3.20
2023-05-12T08:45:10.632Z,2.60
2023-05-12T08:47:58.667Z,2.70
2023-05-12T08:50:47.303Z,2.70
2023-05-12T08:53:36.602Z,2.70
2023-05-12T08:59:13.958Z,2.80
2023-05-12T09:02:04.540Z,2.70
2023-05-12T09:04:52.403Z,2.80
2023-05-12T09:07:43.536Z,2.50
2023-05-12T09:10:34.636Z,2.60
2023-05-12T09:13:54.932Z,2.80
2023-05-12T09:19:30.350Z,2.10
2023-05-12T09:22:18.860Z,2.70
2023-05-12T09:25:19.330Z,2.70
2023-05-12T09:28:06.274Z,2.60
2023-05-12T09:30:52.670Z,2.30
2023-05-12T09:33:39.027Z,2.90
2023-05-12T09:36:25.891Z,2.90
2023-05-12T09:39:13.015Z,2.40
2023-05-12T09:41:59.856Z,3.20
2023-05-12T09:44:47.217Z,3.00
2023-05-12T09:47:36.278Z,2.90
2023-05-12T09:50:23.218Z,2.30
2023-05-12T09:53:10.020Z,3.10
2023-05-12T09:55:56.696Z,3.00
2023-05-12T09:58:48.461Z,2.60
2023-05-12T10:01:35.909Z,2.20
2023-05-12T10:04:22.680Z,2.60
2023-05-12T10:07:13.058Z,2.30
2023-05-12T10:10:02.432Z,2.80
2023-05-12T10:12:49.739Z,2.60
2023-05-12T10:15:36.883Z,2.60
2023-05-12T10:18:24.838Z,2.90
2023-05-12T10:21:12.992Z,2.40
2023-05-12T10:24:00.851Z,2.20
2023-05-12T10:26:47.587Z,3.10
2023-05-12T10:29:35.020Z,2.80
2023-05-12T10:32:21.634Z,2.20
2023-05-12T10:35:09.378Z,2.40
2023-05-12T10:37:56.104Z,2.70
2023-05-12T10:40:58.865Z,2.40
2023-05-12T10:43:49.571Z,2.20
2023-05-12T10:46:37.184Z,2.40
2023-05-12T10:49:33.330Z,2.90
2023-05-12T10:55:12.574Z,2.40
2023-05-12T10:58:13.238Z,2.60
2023-05-12T11:01:07.411Z,2.50
2023-05-12T11:03:59.035Z,2.30
2023-05-12T11:06:46.928Z,2.50
2023-05-12T11:09:46.814Z,2.50
2023-05-12T11:12:43.448Z,3.10
2023-05-12T11:15:30.737Z,3.00
2023-05-12T11:18:21.790Z,2.40
2023-05-12T11:21:12.219Z,3.10
2023-05-12T11:24:00.353Z,2.30
2023-05-12T11:26:51.766Z,2.90
2023-05-12T11:29:41.392Z,2.90
2023-05-12T11:32:29.628Z,2.70
2023-05-12T11:35:18.147Z,2.50
2023-05-12T11:38:15.775Z,2.50
2023-05-12T11:41:02.116Z,2.50
2023-05-12T11:43:48.446Z,3.00
2023-05-12T11:46:35.103Z,2.50
2023-05-12T11:49:21.707Z,2.60
2023-05-12T11:52:08.157Z,3.10
2023-05-12T11:55:00.176Z,2.50
2023-05-12T11:57:56.878Z,2.90
2023-05-12T12:00:43.295Z,3.20
2023-05-12T12:03:29.589Z,3.10
2023-05-12T12:06:17.178Z,2.70
2023-05-12T12:09:03.633Z,2.30
2023-05-12T12:11:50.304Z,2.70
2023-05-12T12:14:38.201Z,2.90
2023-05-12T12:17:30.782Z,2.60
2023-05-12T12:20:18.806Z,2.50
2023-05-12T12:23:05.533Z,2.80
2023-05-12T12:25:52.096Z,2.90
2023-05-12T12:28:38.559Z,3.10
2023-05-12T12:31:24.864Z,3.30
2023-05-12T12:34:11.517Z,3.20
2023-05-12T12:36:57.761Z,2.90
2023-05-12T12:39:44.098Z,3.10
2023-05-12T12:42:31.068Z,2.60
2023-05-12T12:45:20.112Z,3.00
2023-05-12T12:48:09.167Z,2.80
2023-05-12T12:50:56.063Z,3.10
2023-05-12T12:53:45.768Z,3.20
2023-05-12T12:56:32.240Z,3.20
2023-05-12T12:59:18.695Z,3.00
2023-05-12T13:02:05.303Z,3.00
2023-05-12T13:04:52.148Z,3.20
2023-05-12T13:07:38.197Z,2.80
2023-05-12T13:10:25.990Z,2.80
2023-05-12T13:13:12.636Z,2.10
2023-05-12T13:15:58.984Z,2.50
2023-05-12T13:18:46.104Z,2.80
2023-05-12T13:21:32.588Z,3.00
2023-05-12T13:24:19.020Z,3.00
2023-05-12T13:27:08.442Z,2.80
2023-05-12T13:29:55.247Z,2.90
2023-05-12T13:32:41.810Z,2.60
2023-05-12T13:35:28.558Z,3.00
2023-05-12T13:38:15.280Z,2.80
2023-05-12T13:41:02.250Z,2.60
2023-05-12T13:43:48.857Z,3.10
2023-05-12T13:46:35.820Z,2.90
2023-05-12T13:49:22.352Z,2.40
2023-05-12T13:52:08.649Z,2.80
2023-05-12T13:54:55.247Z,2.50
2023-05-12T13:57:41.604Z,3.00
2023-05-12T14:00:29.938Z,2.70
2023-05-12T14:03:16.735Z,2.90
2023-05-12T14:06:04.035Z,2.90
2023-05-12T14:08:50.073Z,2.80
2023-05-12T14:11:37.049Z,2.90
2023-05-12T14:14:23.747Z,2.70
2023-05-12T14:17:10.269Z,2.50
2023-05-12T14:19:56.799Z,2.50
2023-05-12T14:22:43.128Z,2.40
2023-05-12T14:25:30.878Z,2.50
2023-05-12T14:28:17.884Z,2.80
2023-05-12T14:31:04.290Z,2.60
2023-05-12T14:33:50.530Z,2.80
2023-05-12T14:36:36.748Z,2.50
2023-05-12T14:39:23.010Z,2.30
2023-05-12T14:42:09.554Z,2.70
2023-05-12T14:44:56.694Z,2.60
2023-05-12T14:47:43.289Z,2.90
2023-05-12T14:50:30.038Z,2.60
2023-05-12T14:53:16.582Z,2.70
2023-05-12T14:56:02.724Z,2.80
2023-05-12T14:58:49.290Z,2.50
2023-05-12T15:01:35.781Z,2.70
2023-05-12T15:04:22.477Z,2.60
2023-05-12T15:07:09.136Z,2.90
2023-05-12T15:09:55.840Z,2.20
2023-05-12T15:12:42.366Z,3.20
2023-05-12T15:15:29.567Z,2.60
2023-05-12T15:18:16.178Z,2.70
2023-05-12T15:21:02.523Z,2.80
2023-05-12T15:23:49.270Z,2.70
2023-05-12T15:26:39.705Z,2.40
2023-05-12T15:29:27.216Z,2.70
2023-05-12T15:32:13.752Z,3.00
2023-05-12T15:35:00.048Z,2.70
2023-05-12T15:37:46.668Z,2.50
2023-05-12T15:40:33.235Z,3.30
2023-05-12T15:43:19.815Z,3.00
2023-05-12T15:46:06.645Z,2.70
2023-05-12T15:48:52.995Z,3.30
2023-05-12T15:51:39.847Z,3.00
2023-05-12T15:54:26.636Z,2.80
2023-05-12T15:57:13.803Z,2.60
2023-05-12T16:00:00.294Z,2.90
2023-05-12T16:02:47.103Z,2.60
2023-05-12T16:05:37.892Z,2.40
2023-05-12T16:08:24.381Z,2.60
2023-05-12T16:11:11.122Z,2.30
2023-05-12T16:13:57.820Z,2.60
2023-05-12T16:16:48.251Z,2.40
2023-05-12T16:19:34.910Z,2.60
2023-05-12T16:22:21.818Z,2.80
2023-05-12T16:25:08.958Z,2.30
2023-05-12T16:27:55.883Z,2.40
2023-05-12T16:30:42.493Z,2.20
2023-05-12T16:33:29.901Z,2.10
2023-05-12T16:36:17.626Z,2.50
2023-05-12T16:39:04.288Z,2.30
2023-05-12T16:41:50.920Z,2.10
2023-05-12T16:44:37.288Z,2.40
2023-05-12T16:47:24.127Z,2.40
2023-05-12T16:50:11.721Z,2.30
2023-05-12T16:52:58.356Z,2.30
2023-05-12T16:55:44.898Z,2.40
2023-05-12T16:58:31.589Z,2.10
2023-05-12T17:01:18.353Z,2.80
2023-05-12T17:04:06.830Z,2.40
2023-05-12T17:09:40.278Z,2.60
2023-05-12T17:12:26.994Z,2.30
2023-05-12T17:15:13.454Z,2.60
2023-05-12T17:18:00.123Z,2.40
2023-05-12T17:20:46.438Z,3.10
2023-05-12T17:23:32.908Z,2.70
2023-05-12T17:26:19.294Z,2.90
2023-05-12T17:29:05.584Z,2.60
2023-05-12T17:31:51.962Z,3.00
2023-05-12T17:34:38.566Z,3.20
2023-05-12T17:37:25.463Z,3.10
2023-05-12T17:40:18.187Z,3.00
2023-05-12T17:43:04.789Z,3.30
2023-05-12T17:45:51.591Z,2.70
2023-05-12T17:48:38.745Z,3.00
2023-05-12T17:51:25.775Z,3.50
2023-05-12T17:54:12.508Z,3.10
2023-05-12T17:56:59.370Z,2.90
2023-05-12T17:59:45.646Z,3.10
2023-05-12T18:02:32.202Z,3.20
2023-05-12T18:05:18.631Z,3.30
2023-05-12T18:08:06.655Z,3.00
2023-05-12T18:10:52.942Z,3.00
2023-05-12T18:13:39.458Z,3.10
2023-05-12T18:16:29.365Z,3.70
2023-05-12T18:19:16.315Z,3.20
2023-05-12T18:22:02.818Z,3.30
2023-05-12T18:24:50.896Z,3.20
2023-05-12T18:27:37.450Z,3.10
2023-05-12T18:30:23.772Z,3.30
2023-05-12T18:33:10.522Z,3.00
2023-05-12T18:35:57.147Z,3.80
2023-05-12T18:38:44.364Z,3.70
2023-05-12T18:41:31.487Z,3.50
2023-05-12T18:44:17.758Z,3.20
2023-05-12T18:47:04.564Z,3.00
2023-05-12T18:49:51.349Z,3.40
2023-05-12T18:52:37.985Z,3.70
2023-05-12T18:55:24.637Z,3.60
2023-05-12T18:58:11.327Z,3.10
2023-05-12T19:00:57.510Z,3.10
2023-05-12T19:03:44.132Z,3.80
2023-05-12T19:06:31.181Z,3.80
2023-05-12T19:09:17.511Z,3.40
2023-05-12T19:12:06.136Z,4.50
2023-05-12T19:14:52.626Z,4.40
2023-05-12T19:17:39.101Z,4.00
2023-05-12T19:20:25.838Z,4.50
2023-05-12T19:23:12.198Z,4.70
2023-05-12T19:25:59.187Z,4.50
2023-05-12T19:28:45.739Z,5.30
2023-05-12T19:31:34.202Z,4.30
2023-05-12T19:34:21.585Z,4.00
2023-05-12T19:37:08.583Z,4.80
2023-05-12T19:39:54.957Z,4.40
2023-05-12T19:42:42.497Z,5.90
2023-05-12T19:45:29.220Z,4.20
2023-05-12T19:48:15.795Z,5.20
2023-05-12T19:51:02.185Z,5.30
2023-05-12T19:53:48.315Z,5.30
2023-05-12T19:56:34.929Z,5.30
2023-05-12T19:59:21.244Z,5.40
2023-05-12T20:02:11.049Z,5.40
2023-05-12T20:05:01.527Z,4.80
2023-05-12T20:07:48.697Z,5.00
2023-05-12T20:10:35.334Z,4.70
2023-05-12T20:13:21.687Z,4.80
2023-05-12T20:16:08.056Z,5.40
2023-05-12T20:18:54.871Z,5.20
2023-05-12T20:21:41.680Z,5.50
2023-05-12T20:24:28.456Z,4.50
2023-05-12T20:27:15.074Z,5.50
2023-05-12T20:30:01.691Z,5.20
2023-05-12T20:32:50.612Z,5.20
2023-05-12T20:35:37.100Z,5.10
2023-05-12T20:38:24.397Z,4.60
2023-05-12T20:41:10.727Z,5.10
2023-05-12T20:43:57.117Z,4.90
2023-05-12T20:46:43.608Z,5.70
2023-05-12T20:49:30.385Z,5.70
2023-05-12T20:52:16.652Z,6.20
2023-05-12T20:55:03.558Z,5.70
2023-05-12T20:57:50.068Z,5.50
2023-05-12T21:00:37.225Z,5.10
2023-05-12T21:03:24.381Z,5.40
2023-05-12T21:06:12.301Z,5.80
2023-05-12T21:08:58.743Z,5.80
2023-05-12T21:11:45.463Z,6.30
2023-05-12T21:14:44.174Z,5.20
2023-05-12T21:17:30.344Z,6.40
2023-05-12T21:20:16.884Z,5.90
2023-05-12T21:23:03.438Z,6.50
2023-05-12T21:25:53.188Z,6.40
2023-05-12T21:28:39.658Z,6.20
2023-05-12T21:31:26.395Z,5.90
2023-05-12T21:34:12.579Z,5.90
2023-05-12T21:37:00.067Z,5.70
2023-05-12T21:39:46.365Z,6.40
2023-05-12T21:42:32.818Z,7.00
2023-05-12T21:45:21.481Z,6.40
2023-05-12T21:48:08.587Z,6.80
2023-05-12T21:51:09.166Z,6.30
2023-05-12T21:53:56.127Z,5.60
2023-05-12T21:56:45.053Z,7.00
2023-05-12T21:59:33.111Z,6.40
2023-05-12T22:02:26.884Z,6.60
2023-05-12T22:05:14.653Z,6.40
2023-05-12T22:08:00.870Z,6.00
2023-05-12T22:10:49.887Z,6.10
2023-05-12T22:13:37.478Z,5.90
2023-05-12T22:16:31.149Z,6.40
2023-05-12T22:19:25.206Z,6.00
2023-05-12T22:22:12.727Z,5.70
2023-05-12T22:24:59.707Z,5.80
2023-05-12T22:27:46.277Z,6.50
2023-05-12T22:30:33.193Z,5.90
2023-05-12T22:33:19.590Z,6.10
2023-05-12T22:36:07.918Z,6.50
2023-05-12T22:38:55.386Z,6.00
2023-05-12T22:41:44.637Z,6.70
2023-05-12T22:44:31.377Z,7.00
2023-05-12T22:47:17.997Z,6.10
2023-05-12T22:50:06.779Z,6.10
2023-05-12T22:52:57.475Z,6.00
2023-05-12T22:55:47.254Z,6.80
2023-05-12T22:58:33.704Z,5.70
2023-05-12T23:01:19.989Z,6.10
2023-05-12T23:04:06.799Z,6.40
2023-05-12T23:06:53.147Z,6.30
2023-05-12T23:09:39.570Z,6.60
2023-05-12T23:12:25.976Z,5.50
2023-05-12T23:15:12.359Z,6.90
2023-05-12T23:17:58.744Z,5.20
2023-05-12T23:20:45.825Z,5.70
2023-05-12T23:23:33.239Z,5.60
2023-05-12T23:26:19.831Z,5.70
2023-05-12T23:29:06.550Z,6.00
2023-05-12T23:31:52.776Z,5.70
2023-05-12T23:34:40.620Z,6.10
2023-05-12T23:37:27.092Z,6.60
2023-05-12T23:40:13.281Z,5.70
2023-05-12T23:42:59.904Z,5.60
2023-05-12T23:45:46.625Z,5.80
2023-05-12T23:48:33.249Z,6.40
2023-05-12T23:51:19.934Z,6.60
2023-05-12T23:54:06.573Z,5.90
2023-05-12T23:56:52.748Z,5.80
2023-05-12T23:59:39.318Z,5.70
